Time;durP1;ratioP1;P1;durP2;ratioP2;P2;SDS_P1;SDS_P2;PMS_P1;PMS_P2;Temp;Humidity;BMP_temperature;BMP_pressure;BME280_temperature;BME280_humidity;BME280_pressure;Samples;Min_cycle;Max_cycle;Signal;HPM_P1;HPM_P2
2021/01/21 00:02:15;;;;;;;2.25;1.20;;;;;;;11.12;53.77;98676.16;6368495;22;20685;-89
2021/01/21 00:04:41;;;;;;;2.95;1.13;;;;;;;11.77;53.09;98766.00;6368011;22;20025;-89
2021/01/21 00:07:08;;;;;;;2.00;1.20;;;;;;;11.27;53.43;98694.41;6368235;22;20073;-90
2021/01/21 00:09:34;;;;;;;1.45;1.10;;;;;;;9.90;53.91;98471.25;6369425;22;20337;-89
2021/01/21 00:12:00;;;;;;;2.30;1.15;;;;;;;10.85;53.48;98633.19;6368594;22;20386;-89
2021/01/21 00:14:26;;;;;;;2.38;1.10;;;;;;;11.45;53.78;98716.75;6367898;22;20445;-89
2021/01/21 00:16:52;;;;;;;1.83;1.17;;;;;;;11.06;53.46;98668.25;6368153;22;20053;-89
2021/01/21 00:19:19;;;;;;;1.38;0.93;;;;;;;11.26;53.67;98676.28;6367843;22;20080;-90
2021/01/21 00:21:45;;;;;;;2.13;1.00;;;;;;;11.22;53.51;98683.69;6370129;22;20364;-90
2021/01/21 00:24:11;;;;;;;1.35;1.00;;;;;;;11.64;53.62;98750.19;6367792;22;20053;-89
2021/01/21 00:26:37;;;;;;;3.58;1.63;;;;;;;11.75;53.61;98764.56;6368333;22;20503;-89
2021/01/21 00:29:03;;;;;;;2.03;1.30;;;;;;;11.74;53.48;98771.63;6368186;22;20068;-90
2021/01/21 00:31:29;;;;;;;1.48;1.00;;;;;;;11.14;53.41;98665.47;6367692;22;20060;-91
2021/01/21 00:33:55;;;;;;;2.35;1.30;;;;;;;11.37;53.39;98704.59;6368236;22;20057;-90
2021/01/21 00:36:21;;;;;;;3.72;1.13;;;;;;;11.10;53.42;98656.41;6369140;22;20465;-89
2021/01/21 00:38:47;;;;;;;1.67;1.13;;;;;;;10.81;53.97;98611.03;6369596;22;20057;-89
2021/01/21 00:41:13;;;;;;;2.20;0.95;;;;;;;11.60;53.96;98726.16;6369917;22;20014;-89
2021/01/21 00:43:39;;;;;;;0.98;0.93;;;;;;;11.45;53.59;98711.53;6370129;22;20048;-89
2021/01/21 00:46:05;;;;;;;1.52;0.93;;;;;;;11.24;53.72;98676.47;6369037;22;20038;-89
2021/01/21 00:48:31;;;;;;;2.42;1.13;;;;;;;11.49;53.99;98716.19;6369755;22;20015;-90
2021/01/21 00:50:57;;;;;;;2.55;1.20;;;;;;;11.29;53.84;98673.31;6369050;22;20026;-90
2021/01/21 00:53:23;;;;;;;2.17;1.00;;;;;;;11.50;53.63;98694.25;6370345;22;20067;-90
2021/01/21 00:55:49;;;;;;;2.20;0.93;;;;;;;11.21;54.15;98649.88;6369742;22;20055;-89
2021/01/21 00:58:15;;;;;;;2.13;1.10;;;;;;;11.51;53.95;98695.88;6369485;22;20018;-88
2021/01/21 01:03:18;;;;;;;1.38;0.90;;;;;;;11.54;53.82;98694.69;6355256;22;20280;-89
2021/01/21 01:05:44;;;;;;;1.65;1.08;;;;;;;11.17;54.08;98633.75;6369869;22;20014;-89
2021/01/21 01:08:10;;;;;;;2.15;1.10;;;;;;;11.27;54.07;98643.88;6370104;22;20023;-89
2021/01/21 01:10:37;;;;;;;0.95;0.82;;;;;;;11.53;53.84;98679.97;6369970;22;20501;-89
2021/01/21 01:13:03;;;;;;;1.45;1.13;;;;;;;11.51;53.86;98671.50;6370026;22;20018;-89
2021/01/21 01:15:32;;;;;;;1.75;0.95;;;;;;;10.91;53.69;98558.41;6369774;22;20018;-88
2021/01/21 01:18:02;;;;;;;1.15;0.80;;;;;;;9.79;53.74;98384.56;6369901;22;20075;-89
2021/01/21 01:20:28;;;;;;;2.08;1.30;;;;;;;9.24;54.02;98293.78;6369989;22;20337;-89
2021/01/21 01:22:54;;;;;;;1.30;0.80;;;;;;;7.92;53.67;98101.66;6369754;22;20588;-88
2021/01/21 01:25:21;;;;;;;1.38;1.05;;;;;;;11.64;54.14;98658.53;6369729;22;20022;-88
2021/01/21 01:27:48;;;;;;;1.20;0.90;;;;;;;11.77;53.81;98695.28;6369192;22;20074;-89
2021/01/21 01:30:16;;;;;;;1.30;1.00;;;;;;;11.49;53.98;98645.50;6369520;22;20014;-89
2021/01/21 01:32:46;;;;;;;1.80;1.05;;;;;;;11.86;53.97;98682.91;6369130;22;20382;-89
2021/01/21 01:35:13;;;;;;;1.27;0.88;;;;;;;11.44;53.77;98626.13;6369195;22;20033;-89
2021/01/21 01:37:41;;;;;;;1.92;1.10;;;;;;;11.58;53.70;98644.38;6369993;22;20049;-90
2021/01/21 01:40:10;;;;;;;1.92;1.17;;;;;;;11.84;54.28;98671.78;6370004;22;20026;-89
2021/01/21 01:42:36;;;;;;;1.42;1.10;;;;;;;11.53;53.76;98625.81;6370102;22;20052;-89
2021/01/21 01:45:04;;;;;;;1.25;0.90;;;;;;;11.83;54.06;98667.53;6369515;22;20438;-88
2021/01/21 01:47:31;;;;;;;1.60;1.00;;;;;;;11.23;54.04;98572.81;6369007;22;20034;-89
2021/01/21 01:49:59;;;;;;;1.00;0.90;;;;;;;11.48;54.03;98601.19;6369937;22;20022;-89
2021/01/21 01:52:27;;;;;;;1.23;0.90;;;;;;;11.69;53.97;98627.31;6370104;22;20341;-88
2021/01/21 01:54:53;;;;;;;1.33;1.00;;;;;;;11.12;53.90;98532.25;6369972;22;20030;-89
2021/01/21 01:57:27;;;;;;;2.03;0.90;;;;;;;11.42;53.83;98565.28;6369648;22;20026;-89
2021/01/21 01:59:58;;;;;;;1.88;1.02;;;;;;;11.82;53.76;98629.25;6369611;22;20025;-89
2021/01/21 02:02:25;;;;;;;1.95;1.00;;;;;;;11.55;53.93;98602.84;6369226;22;20048;-89
2021/01/21 02:04:51;;;;;;;1.45;0.80;;;;;;;11.72;53.86;98613.03;6369576;22;20075;-89
2021/01/21 02:07:17;;;;;;;1.40;1.02;;;;;;;9.89;53.63;98321.59;6369663;22;20053;-88
2021/01/21 02:09:44;;;;;;;2.60;1.30;;;;;;;11.56;53.78;98591.41;6369657;22;20075;-89
2021/01/21 02:12:43;;;;;;;1.25;0.85;;;;;;;11.60;53.98;98563.00;6369676;22;20049;-89
2021/01/21 02:15:31;;;;;;;1.63;1.33;;;;;;;11.13;53.92;98483.34;6346880;22;20046;-89
2021/01/21 02:18:16;;;;;;;1.48;1.08;;;;;;;11.52;53.91;98550.06;6369552;22;20041;-89
2021/01/21 02:21:20;;;;;;;0.90;0.73;;;;;;;11.95;53.95;98600.56;6369919;22;20097;-89
2021/01/21 02:24:09;;;;;;;1.77;1.00;;;;;;;11.64;54.17;98543.31;6369097;22;20071;-89
2021/01/21 02:27:00;;;;;;;0.93;0.73;;;;;;;11.72;54.06;98542.34;6369610;22;20026;-89
2021/01/21 02:29:31;;;;;;;1.92;0.88;;;;;;;10.78;53.93;98409.22;6343062;22;20071;-89
2021/01/21 02:32:06;;;;;;;0.70;0.68;;;;;;;11.92;54.08;98571.31;6368749;22;20011;-89
2021/01/21 02:34:39;;;;;;;1.73;0.98;;;;;;;11.89;53.96;98571.69;6371071;22;20028;-89
2021/01/21 02:37:13;;;;;;;1.83;1.02;;;;;;;11.90;54.32;98560.22;6369109;22;20014;-89
2021/01/21 02:39:46;;;;;;;2.17;1.08;;;;;;;11.64;54.30;98511.06;6369097;22;20022;-89
2021/01/21 02:42:12;;;;;;;1.98;1.00;;;;;;;11.81;54.10;98544.63;6368901;22;20438;-91
2021/01/21 02:44:38;;;;;;;1.15;0.88;;;;;;;11.38;53.74;98471.44;6370273;22;20056;-89
2021/01/21 02:47:04;;;;;;;1.77;1.02;;;;;;;11.61;54.20;98514.88;6369327;22;20026;-90
2021/01/21 02:49:31;;;;;;;1.85;0.75;;;;;;;9.79;53.56;98214.09;6369136;22;20019;-89
2021/01/21 02:52:06;;;;;;;1.90;1.05;;;;;;;11.84;53.64;98512.81;6369367;22;20014;-88
2021/01/21 02:55:33;;;;;;;1.10;0.85;;;;;;;12.05;53.62;98529.44;6369749;22;20022;-88
2021/01/21 02:58:06;;;;;;;2.80;1.10;;;;;;;11.77;53.77;98485.75;6188545;23;20028;-90
2021/01/21 03:00:34;;;;;;;2.45;1.00;;;;;;;11.84;54.04;98504.94;6369583;22;20071;-89
2021/01/21 03:03:03;;;;;;;1.35;0.73;;;;;;;11.95;54.04;98513.31;6368442;22;20071;-89
2021/01/21 03:05:30;;;;;;;2.03;0.95;;;;;;;11.69;54.00;98477.25;6369129;22;20506;-88
2021/01/21 03:07:57;;;;;;;1.40;1.00;;;;;;;11.57;53.86;98435.13;6369443;22;20026;-89
2021/01/21 03:10:23;;;;;;;1.50;1.25;;;;;;;11.09;53.66;98362.59;6369393;22;20045;-89
2021/01/21 03:12:57;;;;;;;1.55;1.10;;;;;;;11.81;53.58;98458.19;6368981;22;20018;-89
2021/01/21 03:15:23;;;;;;;2.28;1.08;;;;;;;10.34;53.71;98222.16;6368930;22;20076;-88
2021/01/21 03:17:50;;;;;;;2.47;1.17;;;;;;;11.48;53.84;98403.06;6368836;22;20038;-89
2021/01/21 03:20:17;;;;;;;4.97;1.70;;;;;;;11.41;53.86;98370.78;6370633;22;20018;-88
2021/01/21 03:22:43;;;;;;;2.40;1.08;;;;;;;11.71;54.03;98425.50;6368972;22;20075;-89
2021/01/21 03:25:10;;;;;;;2.22;0.80;;;;;;;11.97;53.55;98440.53;6370694;22;20053;-89
2021/01/21 03:27:36;;;;;;;1.52;0.80;;;;;;;11.83;53.66;98437.88;6368527;22;20487;-89
2021/01/21 03:30:05;;;;;;;1.20;0.75;;;;;;;11.95;53.64;98439.94;6369379;22;20026;-89
2021/01/21 03:32:31;;;;;;;1.73;0.90;;;;;;;11.45;53.63;98358.16;6370881;22;20387;-89
2021/01/21 03:34:57;;;;;;;1.27;1.00;;;;;;;11.29;53.66;98340.97;6369300;22;20019;-89
2021/01/21 03:37:25;;;;;;;1.80;0.93;;;;;;;11.77;53.93;98404.56;6368873;22;20030;-88
2021/01/21 03:40:01;;;;;;;1.70;0.80;;;;;;;12.12;53.76;98435.16;6369073;22;20065;-89
2021/01/21 03:42:27;;;;;;;2.20;0.90;;;;;;;11.58;53.68;98371.25;6368916;22;20038;-89
2021/01/21 03:44:53;;;;;;;2.15;1.13;;;;;;;11.49;53.76;98343.66;6368490;22;20075;-89
2021/01/21 03:47:19;;;;;;;5.20;1.33;;;;;;;11.66;53.74;98365.84;6368627;22;20022;-89
2021/01/21 03:49:46;;;;;;;0.90;0.65;;;;;;;11.45;53.66;98329.34;6368863;22;20022;-89
2021/01/21 03:52:12;;;;;;;2.15;1.10;;;;;;;10.37;53.77;98172.13;6369026;22;20393;-89
2021/01/21 03:54:38;;;;;;;1.50;0.90;;;;;;;11.56;54.01;98342.69;6368715;22;20022;-88
2021/01/21 03:57:04;;;;;;;1.35;0.90;;;;;;;11.72;53.96;98356.41;6368763;22;20101;-89
2021/01/21 03:59:30;;;;;;;1.80;0.98;;;;;;;11.55;53.79;98324.53;6369216;22;20029;-89
2021/01/21 04:01:56;;;;;;;1.42;0.93;;;;;;;11.49;53.87;98318.28;6368678;22;20506;-89
2021/01/21 04:04:22;;;;;;;1.02;0.70;;;;;;;11.57;53.41;98312.06;6368064;22;20053;-88
2021/01/21 04:06:48;;;;;;;2.20;0.95;;;;;;;11.79;53.86;98337.09;6368814;22;20022;-89
2021/01/21 04:09:14;;;;;;;1.38;0.80;;;;;;;11.78;53.17;98335.50;6369438;22;20030;-88
2021/01/21 04:11:40;;;;;;;2.05;1.13;;;;;;;11.89;53.84;98349.88;6371093;22;20445;-89
2021/01/21 04:14:06;;;;;;;1.73;0.90;;;;;;;11.42;53.86;98266.91;6370913;22;20056;-90
2021/01/21 04:16:32;;;;;;;1.67;0.85;;;;;;;11.86;53.78;98326.69;6370327;22;20018;-88
2021/01/21 04:18:59;;;;;;;1.73;0.85;;;;;;;11.67;53.56;98288.94;6370888;22;20076;-89
2021/01/21 04:21:25;;;;;;;2.33;1.00;;;;;;;10.19;53.58;98065.50;6372212;22;20015;-90
2021/01/21 04:23:54;;;;;;;4.00;1.00;;;;;;;11.93;53.64;98337.97;6370919;22;20022;-88
2021/01/21 04:26:20;;;;;;;1.42;0.70;;;;;;;11.92;53.72;98330.31;6370478;22;20048;-88
2021/01/21 04:28:46;;;;;;;1.73;1.00;;;;;;;11.92;53.89;98322.47;6372014;22;20550;-89
2021/01/21 04:31:12;;;;;;;2.03;1.20;;;;;;;11.83;53.22;98321.78;6370333;22;20075;-89
2021/01/21 04:33:38;;;;;;;1.73;0.88;;;;;;;11.93;53.20;98318.84;6370565;22;20587;-89
2021/01/21 04:36:05;;;;;;;1.15;1.05;;;;;;;11.67;53.73;98283.72;6370383;22;20038;-88
2021/01/21 04:38:31;;;;;;;1.70;1.00;;;;;;;11.62;53.15;98267.78;6370342;22;20449;-88
2021/01/21 04:40:57;;;;;;;1.48;0.77;;;;;;;11.92;53.30;98304.13;6370809;22;20050;-88
2021/01/21 04:43:23;;;;;;;1.65;1.10;;;;;;;11.79;53.33;98283.94;6372781;22;20092;-88
2021/01/21 04:45:49;;;;;;;1.27;0.90;;;;;;;10.30;53.36;98038.03;6370151;22;20053;-89
2021/01/21 04:48:16;;;;;;;2.05;0.90;;;;;;;11.62;52.83;98262.53;6370106;22;20019;-89
2021/01/21 04:50:42;;;;;;;2.05;1.20;;;;;;;9.88;53.02;97998.06;6370409;22;20017;-89
2021/01/21 04:53:11;;;;;;;1.88;1.00;;;;;;;9.27;52.95;97876.13;6370670;22;20050;-89
2021/01/21 04:55:43;;;;;;;2.55;0.90;;;;;;;12.09;53.18;98315.84;6370322;22;20029;-88
2021/01/21 04:58:12;;;;;;;1.42;1.08;;;;;;;11.99;53.54;98305.72;6371752;22;20033;-88
2021/01/21 05:00:40;;;;;;;1.42;0.93;;;;;;;11.77;53.32;98271.00;6370785;22;20346;-88
2021/01/21 05:03:08;;;;;;;2.40;1.00;;;;;;;11.80;53.01;98254.91;6369499;22;20022;-89
2021/01/21 05:05:34;;;;;;;1.38;0.85;;;;;;;11.86;53.52;98273.47;6369824;22;20025;-89
2021/01/21 05:08:02;;;;;;;1.42;1.00;;;;;;;11.34;52.99;98179.72;6371642;22;20018;-89
2021/01/21 05:10:29;;;;;;;1.48;0.95;;;;;;;11.52;52.76;98204.53;6370561;22;20056;-89
2021/01/21 05:12:57;;;;;;;1.08;0.90;;;;;;;10.88;53.20;98094.09;6370530;22;20018;-90
2021/01/21 05:15:23;;;;;;;2.03;1.27;;;;;;;11.75;53.13;98231.16;6370421;22;20087;-89
2021/01/21 05:17:49;;;;;;;1.52;0.77;;;;;;;11.84;53.29;98243.03;6370529;22;20093;-89
2021/01/21 05:20:15;;;;;;;2.38;0.90;;;;;;;10.56;53.05;98037.31;6370064;22;20029;-89
2021/01/21 05:22:41;;;;;;;2.25;0.95;;;;;;;11.48;52.91;98164.06;6370455;22;20385;-89
2021/01/21 05:25:08;;;;;;;2.25;1.00;;;;;;;9.17;52.91;97803.47;6370515;22;20051;-89
2021/01/21 05:27:36;;;;;;;1.95;1.00;;;;;;;11.10;52.93;98114.88;6370668;22;20391;-89
2021/01/21 05:30:03;;;;;;;1.70;0.80;;;;;;;11.51;52.60;98155.81;6370121;22;20023;-89
2021/01/21 05:32:31;;;;;;;0.93;0.85;;;;;;;11.82;52.96;98212.81;6369754;22;20025;-89
2021/01/21 05:34:59;;;;;;;1.48;0.90;;;;;;;11.23;53.14;98122.75;6369805;22;20037;-89
2021/01/21 05:37:26;;;;;;;2.03;0.90;;;;;;;11.93;53.09;98227.16;6369826;22;20025;-89
2021/01/21 05:39:54;;;;;;;1.50;1.17;;;;;;;10.41;52.65;97991.25;6370179;22;20097;-89
2021/01/21 05:42:20;;;;;;;1.13;0.80;;;;;;;11.76;53.10;98183.00;6369869;22;20018;-89
2021/01/21 05:44:46;;;;;;;1.48;0.80;;;;;;;9.36;52.65;97804.53;6369559;22;20026;-89
2021/01/21 05:47:12;;;;;;;0.77;0.70;;;;;;;10.60;52.94;98007.19;6369423;22;20018;-90
2021/01/21 05:49:38;;;;;;;1.15;0.80;;;;;;;11.55;53.22;98143.91;6369738;22;20018;-89
2021/01/21 05:52:05;;;;;;;2.53;0.90;;;;;;;11.82;53.17;98176.94;6369337;22;20068;-89
2021/01/21 05:54:31;;;;;;;2.88;1.20;;;;;;;10.46;52.62;97947.03;6369900;22;20438;-90
2021/01/21 05:57:01;;;;;;;3.50;1.20;;;;;;;12.14;52.99;98199.91;6370280;22;20075;-89
2021/01/21 05:59:29;;;;;;;1.27;0.95;;;;;;;12.03;52.70;98190.88;6369744;22;20041;-89
2021/01/21 06:01:56;;;;;;;1.27;0.90;;;;;;;11.89;52.87;98165.69;6369925;22;20045;-89
2021/01/21 06:04:27;;;;;;;0.90;0.80;;;;;;;12.21;52.73;98179.78;6369396;22;20113;-89
2021/01/21 06:06:54;;;;;;;1.95;1.08;;;;;;;10.59;52.61;97911.50;6369843;22;20090;-89
2021/01/21 06:09:31;;;;;;;1.73;0.68;;;;;;;11.57;52.61;98056.31;6369608;22;20018;-89
2021/01/21 06:12:02;;;;;;;0.93;0.70;;;;;;;12.05;52.38;98142.53;6371119;22;20334;-89
2021/01/21 06:14:29;;;;;;;1.30;0.85;;;;;;;12.23;52.69;98190.88;6368846;22;20030;-90
2021/01/21 06:16:56;;;;;;;1.95;0.75;;;;;;;12.14;52.34;98150.97;6369467;22;20091;-89
2021/01/21 06:19:23;;;;;;;1.58;0.80;;;;;;;12.04;52.46;98137.47;6369599;22;20022;-89
2021/01/21 06:22:10;;;;;;;1.23;0.80;;;;;;;10.42;52.29;97846.56;6371847;22;20014;-89
2021/01/21 06:24:44;;;;;;;1.42;0.80;;;;;;;12.44;52.26;98168.81;6369605;22;20102;-89
2021/01/21 06:27:13;;;;;;;1.10;0.70;;;;;;;12.35;52.35;98167.44;6369715;22;20079;-89
2021/01/21 06:29:44;;;;;;;1.35;0.88;;;;;;;12.21;51.91;98107.19;6369346;22;20053;-89
2021/01/21 06:32:14;;;;;;;1.45;0.82;;;;;;;12.12;51.96;98110.25;6370924;22;20067;-89
2021/01/21 06:34:41;;;;;;;1.02;0.93;;;;;;;12.08;52.52;98103.81;6371063;22;20075;-89
2021/01/21 06:37:13;;;;;;;0.75;0.70;;;;;;;12.13;52.06;98070.72;6369753;22;20494;-89
2021/01/21 06:40:03;;;;;;;0.93;0.68;;;;;;;12.66;52.13;98137.88;6369673;22;20079;-90
2021/01/21 06:42:33;;;;;;;2.25;0.80;;;;;;;12.40;52.00;98110.75;6369063;22;20101;-88
2021/01/21 06:45:02;;;;;;;1.23;0.80;;;;;;;12.41;51.83;98111.56;6369132;22;20350;-89
2021/01/21 06:47:30;;;;;;;2.35;1.00;;;;;;;12.50;51.65;98123.44;6368881;22;20019;-89
2021/01/21 06:49:59;;;;;;;1.27;0.82;;;;;;;12.55;51.61;98121.00;6369390;22;20449;-89
2021/01/21 06:52:28;;;;;;;2.00;1.27;;;;;;;12.63;52.06;98127.81;6369094;22;20063;-89
2021/01/21 06:54:56;;;;;;;1.58;1.00;;;;;;;12.45;51.74;98116.19;6369151;22;20022;-90
2021/01/21 06:57:35;;;;;;;1.70;1.00;;;;;;;12.82;51.67;98131.38;6368669;22;20030;-91
2021/01/21 07:00:05;;;;;;;1.42;0.63;;;;;;;12.51;51.73;98109.31;6369306;22;20438;-91
2021/01/21 07:02:48;;;;;;;1.05;0.90;;;;;;;11.88;51.44;97989.41;6368760;22;20069;-90
2021/01/21 07:05:18;;;;;;;2.08;0.90;;;;;;;12.59;51.50;98114.34;6369487;22;20040;-91
2021/01/21 07:08:04;;;;;;;1.85;0.73;;;;;;;12.82;51.45;98115.63;6369114;22;20101;-91
2021/01/21 07:10:37;;;;;;;1.58;0.98;;;;;;;12.58;50.95;98089.13;6368903;22;20026;-91
2021/01/21 07:13:09;;;;;;;2.08;1.00;;;;;;;12.85;51.36;98150.13;6369427;22;20026;-90
2021/01/21 07:18:54;;;;;;;2.63;0.90;;;;;;;12.86;51.15;98130.75;6370852;22;20020;-91
2021/01/21 07:21:25;;;;;;;1.55;0.85;;;;;;;12.65;50.89;98105.63;6369483;22;20050;-89
2021/01/21 07:23:56;;;;;;;1.90;0.80;;;;;;;12.72;51.04;98097.75;6369512;22;20022;-90
2021/01/21 07:26:28;;;;;;;1.23;0.80;;;;;;;13.04;50.92;98134.50;6369085;22;20041;-91
2021/01/21 07:29:14;;;;;;;1.58;0.80;;;;;;;13.03;50.85;98132.91;6369271;22;20053;-90
2021/01/21 07:31:56;;;;;;;1.75;0.93;;;;;;;13.12;51.10;98132.41;6368563;22;20022;-90
2021/01/21 07:34:26;;;;;;;0.88;0.73;;;;;;;12.98;50.93;98138.75;6368951;22;20075;-91
2021/01/21 07:37:23;;;;;;;1.83;0.73;;;;;;;13.15;50.88;98139.06;6369459;22;20022;-90
2021/01/21 07:39:52;;;;;;;0.60;0.60;;;;;;;13.02;50.73;98147.81;6368485;22;20018;-90
2021/01/21 07:42:23;;;;;;;2.00;0.90;;;;;;;12.71;50.82;98080.38;6369340;22;20044;-89
2021/01/21 07:44:58;;;;;;;2.08;0.90;;;;;;;13.17;50.44;98152.78;6368239;22;20072;-89
2021/01/21 07:47:35;;;;;;;1.40;0.63;;;;;;;12.98;50.68;98128.25;6368800;22;20018;-90
2021/01/21 07:50:14;;;;;;;1.50;0.68;;;;;;;13.23;50.67;98165.06;6368494;22;20022;-90
2021/01/21 07:52:41;;;;;;;0.93;0.73;;;;;;;12.83;51.01;98122.47;6368803;22;20015;-90
2021/01/21 07:55:07;;;;;;;0.80;0.70;;;;;;;12.91;50.90;98166.84;6369336;22;20022;-90
2021/01/21 07:57:33;;;;;;;1.75;0.57;;;;;;;11.69;50.52;97975.31;6368791;22;20022;-89
2021/01/21 08:00:10;;;;;;;1.05;0.80;;;;;;;12.88;50.70;98156.75;6368780;22;20034;-90
2021/01/21 08:02:52;;;;;;;0.85;0.70;;;;;;;13.22;50.96;98226.47;6368217;22;20034;-91
2021/01/21 08:05:23;;;;;;;2.15;0.70;;;;;;;11.50;51.11;97992.72;6368367;22;20037;-88
2021/01/21 08:07:55;;;;;;;1.50;0.75;;;;;;;13.26;51.67;98311.69;6369222;22;20087;-90
2021/01/21 08:10:23;;;;;;;1.23;0.80;;;;;;;13.33;52.74;98374.66;6368734;22;20058;-90
2021/01/21 08:12:54;;;;;;;0.93;0.60;;;;;;;13.32;52.39;98371.22;6368624;22;20079;-89
2021/01/21 08:15:22;;;;;;;1.00;0.40;;;;;;;9.79;53.33;97839.00;6369028;22;20498;-89
2021/01/21 08:17:50;;;;;;;0.25;0.20;;;;;;;13.04;54.21;98333.94;6368195;22;20022;-90
2021/01/21 08:20:36;;;;;;;0.50;0.20;;;;;;;13.50;53.89;98417.84;6366961;22;20088;-88
2021/01/21 08:23:04;;;;;;;0.40;0.20;;;;;;;13.35;53.68;98368.19;6368561;22;20022;-89
2021/01/21 08:25:53;;;;;;;0.17;0.17;;;;;;;13.44;52.95;98358.28;6368300;22;20439;-89
2021/01/21 08:28:21;;;;;;;0.20;0.20;;;;;;;13.30;52.93;98385.56;6368531;22;20398;-90
2021/01/21 08:30:49;;;;;;;1.08;0.40;;;;;;;13.27;53.19;98407.78;6342233;22;20022;-90
2021/01/21 08:33:25;;;;;;;0.88;0.25;;;;;;;12.69;52.78;98316.66;6367737;22;20022;-89
2021/01/21 08:35:53;;;;;;;0.85;0.40;;;;;;;13.16;52.41;98398.72;6367908;22;20068;-89
2021/01/21 08:38:27;;;;;;;0.95;0.32;;;;;;;11.02;52.11;98068.78;6369741;22;20349;-89
2021/01/21 08:40:54;;;;;;;0.90;0.50;;;;;;;13.00;52.28;98411.44;6368419;22;20018;-90
2021/01/21 08:43:24;;;;;;;1.58;0.40;;;;;;;12.62;51.94;98359.63;6370262;22;20026;-89
2021/01/21 08:45:54;;;;;;;2.03;0.50;;;;;;;11.46;51.80;98215.78;6368198;22;20018;-90
2021/01/21 08:48:23;;;;;;;0.88;0.47;;;;;;;13.03;51.94;98411.84;6367992;22;20014;-88
2021/01/21 08:50:49;;;;;;;1.85;0.50;;;;;;;11.00;51.60;98109.22;6368616;22;20045;-89
2021/01/21 08:53:30;;;;;;;1.17;0.32;;;;;;;12.40;51.63;98361.63;6368522;22;20022;-88
2021/01/21 08:55:57;;;;;;;0.43;0.20;;;;;;;12.28;51.80;98349.13;6369891;22;20028;-90
2021/01/21 08:58:31;;;;;;;0.30;0.30;;;;;;;12.41;51.46;98364.03;6369515;22;20022;-90
2021/01/21 09:04:39;;;;;;;0.30;0.20;;;;;;;12.60;52.21;98422.75;6370632;22;20041;-90
2021/01/21 09:07:07;;;;;;;0.73;0.30;;;;;;;12.59;52.28;98447.34;6370370;22;20024;-90
2021/01/21 09:09:39;;;;;;;1.70;0.40;;;;;;;12.42;52.35;98412.06;6370485;22;20421;-90
2021/01/21 09:12:20;;;;;;;1.35;0.40;;;;;;;12.41;52.25;98426.16;6370260;22;20015;-90
2021/01/21 09:15:07;;;;;;;2.15;0.40;;;;;;;12.58;52.30;98458.88;6370372;22;20037;-89
2021/01/21 09:17:37;;;;;;;1.83;0.90;;;;;;;12.28;52.50;98461.81;6369850;22;20026;-89
2021/01/21 09:20:19;;;;;;;1.33;0.35;;;;;;;12.47;52.30;98457.63;6370347;22;20024;-90
2021/01/21 09:22:50;;;;;;;;;;;;;;;12.53;52.58;98458.66;6371207;22;20089;-89
2021/01/21 09:25:26;;;;;;;1.40;0.40;;;;;;;12.44;52.48;98499.16;6370601;22;19914;-89
2021/01/21 09:27:54;;;;;;;0.65;0.30;;;;;;;12.25;52.39;98479.75;6368249;22;20029;-90
2021/01/21 09:30:22;;;;;;;2.72;0.60;;;;;;;10.49;52.84;98231.50;6368023;22;20038;-90
2021/01/21 09:32:49;;;;;;;0.98;0.35;;;;;;;10.45;52.92;98242.53;6369154;22;20018;-89
2021/01/21 09:35:18;;;;;;;0.68;0.40;;;;;;;11.03;52.90;98305.81;6370200;22;20093;-90
2021/01/21 09:37:47;;;;;;;1.00;0.50;;;;;;;11.00;53.28;98310.59;6368627;22;20026;-90
2021/01/21 09:40:19;;;;;;;0.73;0.40;;;;;;;10.09;53.16;98177.31;6369884;22;20033;-90
2021/01/21 09:42:49;;;;;;;1.40;0.43;;;;;;;8.42;52.73;97911.81;6369046;22;20040;-89
2021/01/21 09:45:16;;;;;;;1.38;0.47;;;;;;;10.33;53.19;98210.09;6368760;22;20023;-90
2021/01/21 09:47:43;;;;;;;1.10;0.30;;;;;;;9.80;53.39;98151.22;6368677;22;20097;-90
2021/01/21 09:50:10;;;;;;;0.30;0.30;;;;;;;8.47;53.32;97927.69;6369819;22;20087;-90
2021/01/21 09:52:36;;;;;;;1.33;0.47;;;;;;;10.83;53.83;98331.84;6368455;22;20048;-89
2021/01/21 09:55:05;;;;;;;0.95;0.40;;;;;;;10.84;53.63;98317.78;6367193;22;20454;-89
2021/01/21 09:57:31;;;;;;;2.42;0.95;;;;;;;9.50;53.80;98105.41;6365508;22;20018;-90
2021/01/21 09:59:58;;;;;;;1.08;0.60;;;;;;;11.95;53.96;98492.34;6366822;22;20024;-90
2021/01/21 10:02:24;;;;;;;1.25;0.55;;;;;;;11.54;54.13;98448.59;6364873;22;20041;-89
2021/01/21 10:04:51;;;;;;;1.98;0.70;;;;;;;11.83;54.14;98495.50;6365086;22;20387;-89
2021/01/21 10:07:19;;;;;;;4.07;0.70;;;;;;;11.64;54.00;98456.06;6367404;22;20100;-89
2021/01/21 10:09:45;;;;;;;0.40;0.40;;;;;;;9.78;53.75;98191.56;6365043;22;20097;-90
2021/01/21 10:12:11;;;;;;;0.88;0.52;;;;;;;8.46;53.21;97983.38;6366246;22;20089;-89
2021/01/21 10:14:38;;;;;;;3.15;0.73;;;;;;;8.82;53.25;98073.72;6367737;22;20042;-91
2021/01/21 10:17:07;;;;;;;2.28;0.60;;;;;;;10.48;53.40;98307.47;6365801;22;20030;-90
2021/01/21 10:19:34;;;;;;;3.20;0.80;;;;;;;11.42;53.57;98460.59;6368280;22;20425;-90
2021/01/21 10:22:00;;;;;;;1.58;0.75;;;;;;;8.48;53.35;98008.25;6366808;22;20719;-90
2021/01/21 10:24:27;;;;;;;0.98;0.60;;;;;;;9.85;53.16;98228.97;6367170;22;20102;-91
2021/01/21 10:26:53;;;;;;;1.48;0.63;;;;;;;10.69;53.75;98351.03;6366157;22;20077;-91
2021/01/21 10:29:19;;;;;;;2.53;0.60;;;;;;;8.19;52.73;97956.22;6366108;22;20014;-91
2021/01/21 10:31:48;;;;;;;2.08;0.68;;;;;;;11.59;53.38;98503.81;6367356;22;20010;-89
2021/01/21 10:34:15;;;;;;;1.17;0.60;;;;;;;8.27;53.39;97980.34;6365779;22;20022;-88
2021/01/21 10:36:41;;;;;;;2.80;0.65;;;;;;;10.38;53.51;98307.78;6366131;22;20018;-91
2021/01/21 10:39:08;;;;;;;0.50;0.40;;;;;;;7.92;53.00;97937.69;6367219;22;20033;-90
2021/01/21 10:41:34;;;;;;;1.65;0.60;;;;;;;11.71;53.93;98544.16;6364899;22;20357;-91
2021/01/21 10:44:01;;;;;;;1.67;0.80;;;;;;;11.83;53.80;98545.25;6366319;22;20023;-91
2021/01/21 10:46:27;;;;;;;0.98;0.60;;;;;;;9.61;54.01;98207.47;6365534;22;20050;-91
2021/01/21 10:48:56;;;;;;;2.65;0.80;;;;;;;10.47;53.56;98321.53;6366029;22;20034;-90
2021/01/21 10:51:27;;;;;;;3.17;0.93;;;;;;;8.02;52.98;97927.00;6365763;22;20014;-90
2021/01/21 10:53:54;;;;;;;1.92;0.63;;;;;;;9.83;53.18;98262.28;6365617;22;20028;-90
2021/01/21 10:56:21;;;;;;;1.10;0.70;;;;;;;8.33;52.54;97991.81;6368625;22;20101;-90
2021/01/21 10:58:47;;;;;;;3.42;0.90;;;;;;;8.41;52.77;98001.34;6366728;22;20033;-89
2021/01/21 11:01:14;;;;;;;2.90;0.50;;;;;;;10.46;53.29;98307.66;6364737;22;20019;-90
2021/01/21 11:03:40;;;;;;;1.25;0.60;;;;;;;9.56;52.83;98177.72;6365689;22;20025;-91
2021/01/21 11:06:06;;;;;;;1.75;0.70;;;;;;;10.16;52.97;98254.75;6364794;22;20018;-90
2021/01/21 11:08:33;;;;;;;0.82;0.43;;;;;;;10.02;52.22;98230.31;6367961;22;20025;-90
2021/01/21 11:10:59;;;;;;;1.02;0.70;;;;;;;8.68;52.21;98023.28;6366270;22;20022;-90
2021/01/21 11:13:28;;;;;;;1.40;0.45;;;;;;;8.49;52.27;97972.59;6367653;22;20437;-90
2021/01/21 11:15:54;;;;;;;1.27;0.70;;;;;;;9.92;52.23;98203.75;6367062;22;20057;-90
2021/01/21 11:18:23;;;;;;;0.88;0.57;;;;;;;8.70;51.94;98010.84;6365156;22;20033;-90
2021/01/21 11:20:49;;;;;;;1.48;0.60;;;;;;;8.19;51.70;97930.19;6366725;22;20176;-89
2021/01/21 11:23:15;;;;;;;0.80;0.60;;;;;;;12.14;52.47;98538.78;6365480;22;20101;-90
2021/01/21 11:25:42;;;;;;;2.38;0.68;;;;;;;10.70;52.23;98342.22;6364325;22;20405;-89
2021/01/21 11:28:09;;;;;;;2.25;0.65;;;;;;;10.89;52.06;98338.94;6364818;22;20046;-90
2021/01/21 11:30:35;;;;;;;2.17;0.75;;;;;;;9.35;51.76;98128.97;6364713;22;20111;-89
2021/01/21 11:33:02;;;;;;;3.03;0.65;;;;;;;10.82;52.04;98335.47;6365419;22;20445;-89
2021/01/21 11:35:33;;;;;;;2.97;0.70;;;;;;;11.91;51.97;98502.38;6367901;22;20022;-90
2021/01/21 11:37:59;;;;;;;1.25;0.60;;;;;;;10.01;51.49;98207.84;6368341;22;20022;-89
2021/01/21 11:40:25;;;;;;;1.33;0.80;;;;;;;10.69;51.53;98301.38;6367728;22;20025;-90
2021/01/21 11:42:52;;;;;;;1.65;0.50;;;;;;;9.65;51.00;98134.88;6368197;22;20015;-90
2021/01/21 11:45:21;;;;;;;2.90;0.70;;;;;;;10.36;51.54;98249.69;6367066;22;20014;-90
2021/01/21 11:47:48;;;;;;;1.17;0.68;;;;;;;10.57;51.63;98253.25;6368692;22;20033;-91
2021/01/21 11:50:17;;;;;;;2.83;0.73;;;;;;;10.92;51.00;98338.56;6367710;22;20026;-90
2021/01/21 11:52:44;;;;;;;2.08;0.73;;;;;;;8.99;51.05;98020.34;6368465;22;20064;-90
2021/01/21 11:55:13;;;;;;;1.73;0.68;;;;;;;8.52;50.55;97940.97;6367983;22;20018;-90